Time;durP1;ratioP1;P1;durP2;ratioP2;P2;SDS_P1;SDS_P2;PMS_P1;PMS_P2;Temp;Humidity;BMP_temperature;BMP_pressure;BME280_temperature;BME280_humidity;BME280_pressure;Samples;Min_cycle;Max_cycle;Signal;HPM_P1;HPM_P2
2022/05/06 00:00:00;;;;;;;;;;;;;;;13.25;49.03;102139.75;5031289;28;19921;-54
2022/05/06 00:02:25;;;;;;;;;;;;;;;13.21;49.21;102131.13;5023273;28;19912;-57
2022/05/06 00:04:51;;;;;;;;;;;;;;;13.18;49.08;102138.34;5027640;28;21281;-54
2022/05/06 00:07:17;;;;;;;;;;;;;;;13.14;49.13;102137.63;5025039;28;19979;-55
2022/05/06 00:09:44;;;;;;;;;;;;;;;13.11;49.27;102135.13;5026546;28;19917;-54
2022/05/06 00:12:10;;;;;;;;;;;;;;;13.10;49.30;102138.69;5025158;28;20007;-56
2022/05/06 00:14:36;;;;;;;;;;;;;;;13.07;49.22;102139.72;5025723;28;19920;-57
2022/05/06 00:17:04;;;;;;;;;;;;;;;13.06;49.45;102138.00;5027168;28;19921;-53
2022/05/06 00:19:29;;;;;;;;;;;;;;;13.04;49.31;102129.28;5024146;28;20297;-57
2022/05/06 00:21:55;;;;;;;;;;;;;;;13.00;49.51;102138.25;5023454;28;19923;-56
2022/05/06 00:24:21;;;;;;;;;;;;;;;12.96;49.57;102141.97;5023949;28;19923;-53
2022/05/06 00:26:46;;;;;;;;;;;;;;;12.93;49.62;102132.41;5028279;28;21981;-54
2022/05/06 00:29:11;;;;;;;;;;;;;;;12.88;49.69;102134.38;5025352;28;20762;-55
2022/05/06 00:31:36;;;;;;;;;;;;;;;12.86;49.62;102130.94;5028694;28;21260;-57
2022/05/06 00:34:02;;;;;;;;;;;;;;;12.86;49.67;102135.38;5029379;28;20227;-57
2022/05/06 00:36:27;;;;;;;;;;;;;;;12.86;49.67;102138.03;5026455;28;19920;-53
2022/05/06 00:38:52;;;;;;;;;;;;;;;12.85;49.74;102131.03;5022288;28;19933;-49
2022/05/06 00:41:18;;;;;;;;;;;;;;;12.83;49.80;102130.25;5025635;28;20288;-52
2022/05/06 00:43:43;;;;;;;;;;;;;;;12.80;49.82;102133.88;5028373;28;19928;-52
2022/05/06 00:46:14;;;;;;;;;;;;;;;12.76;49.82;102134.94;5022165;28;20391;-51
2022/05/06 00:48:40;;;;;;;;;;;;;;;12.75;49.67;102138.50;5028850;28;20299;-53
2022/05/06 00:51:06;;;;;;;;;;;;;;;12.75;49.77;102142.03;5023702;28;20020;-55
2022/05/06 00:53:35;;;;;;;;;;;;;;;12.72;49.82;102133.34;5028962;28;20454;-51
2022/05/06 00:56:02;;;;;;;;;;;;;;;12.71;49.84;102134.28;5026802;28;19921;-53
2022/05/06 00:58:30;;;;;;;;;;;;;;;12.67;49.90;102128.28;5023889;28;19924;-49
2022/05/06 01:00:55;;;;;;;;;;;;;;;12.63;49.79;102131.97;5026173;28;19966;-49
2022/05/06 01:03:21;;;;;;;;;;;;;;;12.60;49.77;102132.97;5027194;28;20389;-49
2022/05/06 01:05:47;;;;;;;;;;;;;;;12.58;49.76;102136.63;5028380;28;19925;-51
2022/05/06 01:08:12;;;;;;;;;;;;;;;12.53;50.09;102139.47;5027378;28;20380;-51
2022/05/06 01:10:38;;;;;;;;;;;;;;;12.47;49.97;102137.97;5026203;28;19939;-50
2022/05/06 01:13:04;;;;;;;;;;;;;;;12.44;50.09;102134.56;5025895;28;19964;-55
2022/05/06 01:15:30;;;;;;;;;;;;;;;12.40;50.07;102139.13;5027562;28;21072;-53
2022/05/06 01:17:56;;;;;;;;;;;;;;;12.39;50.24;102137.41;5026351;28;19971;-52
2022/05/06 01:20:21;;;;;;;;;;;;;;;12.39;50.10;102140.06;5029952;28;19921;-50
2022/05/06 01:22:47;;;;;;;;;;;;;;;12.36;50.03;102137.53;5025751;28;19913;-51
2022/05/06 01:25:13;;;;;;;;;;;;;;;12.37;50.14;102138.41;5027670;28;20345;-57
2022/05/06 01:27:47;;;;;;;;;;;;;;;12.34;50.11;102142.03;5025032;28;19955;-51
2022/05/06 01:30:17;;;;;;;;;;;;;;;12.32;50.20;102142.09;5028773;28;19921;-49
2022/05/06 01:32:43;;;;;;;;;;;;;;;12.29;50.25;102138.75;5029326;28;20012;-57
2022/05/06 01:35:09;;;;;;;;;;;;;;;12.29;50.34;102141.38;5025226;28;20007;-55
2022/05/06 01:37:36;;;;;;;;;;;;;;;12.27;50.17;102143.22;5023424;28;19918;-54
2022/05/06 01:40:03;;;;;;;;;;;;;;;12.25;50.33;102145.91;5023499;28;19921;-56
2022/05/06 01:42:29;;;;;;;;;;;;;;;12.23;50.38;102145.16;5024250;28;19924;-56
2022/05/06 01:44:55;;;;;;;;;;;;;;;12.23;50.33;102146.91;5023772;28;20300;-54
2022/05/06 01:47:30;;;;;;;;;;;;;;;12.20;50.46;102154.03;5020964;28;20377;-55
2022/05/06 01:49:57;;;;;;;;;;;;;;;12.19;50.48;102147.03;5024188;28;19964;-56
2022/05/06 01:52:24;;;;;;;;;;;;;;;12.16;50.59;102152.47;5024811;28;20519;-56
2022/05/06 01:54:49;;;;;;;;;;;;;;;12.13;50.58;102152.59;5023230;28;19932;-55
2022/05/06 01:57:15;;;;;;;;;;;;;;;12.10;50.52;102151.88;5023941;28;19921;-56
2022/05/06 01:59:40;;;;;;;;;;;;;;;12.08;50.50;102154.53;5024784;28;19913;-52
2022/05/06 02:02:05;;;;;;;;;;;;;;;12.08;50.53;102151.91;5024906;28;19925;-49
2022/05/06 02:07:14;;;;;;;;;;;;;;;12.01;50.58;102143.41;5021982;28;20015;-52
2022/05/06 02:09:40;;;;;;;;;;;;;;;11.97;50.50;102146.19;5027333;28;23120;-51
2022/05/06 02:12:05;;;;;;;;;;;;;;;11.93;50.53;102142.84;5024393;28;19920;-50
2022/05/06 02:14:31;;;;;;;;;;;;;;;11.88;50.54;102143.00;5029102;28;19917;-53
2022/05/06 02:16:56;;;;;;;;;;;;;;;11.86;50.36;102142.22;5025225;28;19936;-54
2022/05/06 02:19:22;;;;;;;;;;;;;;;11.82;50.40;102153.81;5012706;28;19939;-48
2022/05/06 02:21:47;;;;;;;;;;;;;;;11.76;50.49;102143.50;5021124;28;19970;-57
2022/05/06 02:24:12;;;;;;;;;;;;;;;11.70;50.51;102149.03;5022807;28;19926;-49
2022/05/06 02:26:38;;;;;;;;;;;;;;;11.68;50.37;102146.44;5022028;28;19991;-55
2022/05/06 02:29:04;;;;;;;;;;;;;;;11.69;50.45;102155.22;5021076;28;19999;-53
2022/05/06 02:34:16;;;;;;;;;;;;;;;11.72;50.59;102153.31;5025434;28;19923;-52
2022/05/06 02:36:42;;;;;;;;;;;;;;;11.73;50.74;102159.44;5005344;28;20063;-55
2022/05/06 02:39:07;;;;;;;;;;;;;;;11.74;50.57;102164.66;5018292;28;20019;-53
2022/05/06 02:41:33;;;;;;;;;;;;;;;11.75;50.58;102157.59;5007234;28;19972;-48
2022/05/06 02:43:58;;;;;;;;;;;;;;;11.76;50.61;102154.03;5023095;28;20009;-54
2022/05/06 02:46:24;;;;;;;;;;;;;;;11.74;50.89;102161.16;5027009;28;19991;-49
2022/05/06 02:48:50;;;;;;;;;;;;;;;11.72;50.87;102157.75;5021635;28;19975;-50
2022/05/06 02:51:15;;;;;;;;;;;;;;;11.71;50.90;102156.03;5022705;28;19955;-48
2022/05/06 02:53:40;;;;;;;;;;;;;;;11.70;50.90;102159.59;5025868;28;20365;-52
2022/05/06 02:56:06;;;;;;;;;;;;;;;11.68;50.85;102153.50;5023379;28;19960;-48
2022/05/06 02:58:31;;;;;;;;;;;;;;;11.67;51.01;102162.34;5022642;28;19917;-48
2022/05/06 03:00:56;;;;;;;;;;;;;;;11.64;51.07;102165.09;5020293;28;19925;-49
2022/05/06 03:03:21;;;;;;;;;;;;;;;11.63;51.08;102172.16;5026017;28;19921;-48
2022/05/06 03:05:47;;;;;;;;;;;;;;;11.63;51.04;102163.38;5026852;28;19967;-52
2022/05/06 03:08:12;;;;;;;;;;;;;;;11.62;51.15;102165.16;5025314;28;19963;-49
2022/05/06 03:10:38;;;;;;;;;;;;;;;11.62;51.37;102172.19;5027111;28;19975;-49
2022/05/06 03:13:04;;;;;;;;;;;;;;;11.62;51.35;102166.94;5024750;28;19928;-54
2022/05/06 03:15:30;;;;;;;;;;;;;;;11.62;51.23;102170.44;5029100;28;19913;-51
2022/05/06 03:17:56;;;;;;;;;;;;;;;11.60;51.28;102169.63;5026688;28;19924;-54
2022/05/06 03:20:21;;;;;;;;;;;;;;;11.57;51.35;102170.59;5021854;28;20324;-49
2022/05/06 03:22:47;;;;;;;;;;;;;;;11.58;51.23;102176.75;5026561;28;19916;-48
2022/05/06 03:25:14;;;;;;;;;;;;;;;11.57;51.36;102167.97;5027608;28;19921;-49
2022/05/06 03:30:23;;;;;;;;;;;;;;;11.57;51.30;102186.41;5026818;28;19928;-49
2022/05/06 03:32:49;;;;;;;;;;;;;;;11.56;51.48;102190.00;5030225;28;19913;-50
2022/05/06 03:35:14;;;;;;;;;;;;;;;11.55;51.30;102188.28;5022016;28;19921;-52
2022/05/06 03:37:39;;;;;;;;;;;;;;;11.53;51.37;102179.56;5026458;28;20304;-52
2022/05/06 03:40:06;;;;;;;;;;;;;;;11.52;51.43;102174.34;5025949;28;19952;-50
2022/05/06 03:42:31;;;;;;;;;;;;;;;11.50;51.55;102182.31;5026633;28;19913;-48
2022/05/06 03:44:57;;;;;;;;;;;;;;;11.51;51.55;102183.16;5025689;28;20082;-51
2022/05/06 03:47:22;;;;;;;;;;;;;;;11.51;51.66;102189.31;5024307;28;19974;-51
2022/05/06 03:52:34;;;;;;;;;;;;;;;11.41;51.73;102190.59;5028658;28;19924;-55
2022/05/06 03:55:00;;;;;;;;;;;;;;;11.36;51.87;102197.78;5023171;28;19921;-54
2022/05/06 03:57:25;;;;;;;;;;;;;;;11.35;52.04;102198.72;5027472;28;19913;-55
2022/05/06 03:59:50;;;;;;;;;;;;;;;11.37;51.90;102199.50;5025270;28;19923;-57
2022/05/06 04:02:16;;;;;;;;;;;;;;;11.39;52.06;102197.69;5033420;28;19917;-52
2022/05/06 04:04:42;;;;;;;;;;;;;;;11.42;52.10;102200.19;5026245;28;20304;-54
2022/05/06 04:07:07;;;;;;;;;;;;;;;11.41;51.91;102190.59;5027462;28;20377;-53
2022/05/06 04:09:32;;;;;;;;;;;;;;;11.42;51.94;102208.97;5024570;28;19943;-54
2022/05/06 04:11:59;;;;;;;;;;;;;;;11.41;52.11;102203.75;5018065;28;19916;-57
2022/05/06 04:14:25;;;;;;;;;;;;;;;11.42;52.14;102205.44;5025034;28;20312;-53
2022/05/06 04:16:50;;;;;;;;;;;;;;;11.44;52.18;102201.84;5007532;28;19940;-52
2022/05/06 04:19:15;;;;;;;;;;;;;;;11.47;52.21;102195.59;5024701;28;20587;-55
2022/05/06 04:24:24;;;;;;;;;;;;;;;11.52;52.10;102203.31;5022233;28;19983;-53
2022/05/06 04:26:50;;;;;;;;;;;;;;;11.51;52.11;102202.47;5023164;28;20420;-56
2022/05/06 04:29:15;;;;;;;;;;;;;;;11.50;52.30;102213.06;5028586;28;19928;-57
2022/05/06 04:31:41;;;;;;;;;;;;;;;11.51;52.46;102215.66;5024903;28;20015;-54
2022/05/06 04:34:07;;;;;;;;;;;;;;;11.53;52.28;102221.75;5029809;28;19917;-55
2022/05/06 04:36:32;;;;;;;;;;;;;;;11.54;52.32;102218.19;5031914;28;19917;-55
2022/05/06 04:38:58;;;;;;;;;;;;;;;11.56;52.31;102221.63;5030293;28;19932;-54
2022/05/06 04:41:24;;;;;;;;;;;;;;;11.59;52.39;102224.13;5032310;28;20265;-55
2022/05/06 04:43:49;;;;;;;;;;;;;;;11.63;52.40;102231.91;5024489;28;19980;-50
2022/05/06 04:46:15;;;;;;;;;;;;;;;11.65;52.35;102233.56;5023398;28;19917;-51
2022/05/06 04:48:40;;;;;;;;;;;;;;;11.67;52.46;102231.75;5026598;28;19921;-50
2022/05/06 04:51:05;;;;;;;;;;;;;;;11.70;52.46;102233.41;5028468;28;19917;-53
2022/05/06 04:53:31;;;;;;;;;;;;;;;11.71;52.52;102222.78;5027876;28;20292;-52
2022/05/06 04:55:56;;;;;;;;;;;;;;;11.75;52.27;102226.16;5030906;28;19916;-49
2022/05/06 04:58:22;;;;;;;;;;;;;;;11.74;52.33;102219.16;5026322;28;19921;-50
2022/05/06 05:00:47;;;;;;;;;;;;;;;11.72;52.61;102227.16;5028471;28;19916;-54
2022/05/06 05:03:12;;;;;;;;;;;;;;;11.75;52.60;102234.06;5025802;28;20019;-48
2022/05/06 05:05:38;;;;;;;;;;;;;;;11.78;52.68;102231.31;5027402;28;19921;-55
2022/05/06 05:08:03;;;;;;;;;;;;;;;11.83;52.65;102231.13;5024772;28;19932;-48
2022/05/06 05:10:29;;;;;;;;;;;;;;;11.90;52.58;102230.00;5026036;28;19917;-47
2022/05/06 05:12:54;;;;;;;;;;;;;;;11.97;52.60;102235.88;5025834;28;19925;-53
2022/05/06 05:15:19;;;;;;;;;;;;;;;12.02;52.60;102236.59;5030726;28;19913;-49
2022/05/06 05:17:45;;;;;;;;;;;;;;;12.07;52.72;102245.16;5026165;28;19928;-48
2022/05/06 05:20:11;;;;;;;;;;;;;;;12.12;52.55;102248.50;5025754;28;20003;-51
2022/05/06 05:22:37;;;;;;;;;;;;;;;12.14;52.80;102253.69;5024605;28;19912;-57
2022/05/06 05:25:03;;;;;;;;;;;;;;;12.14;52.80;102249.28;5027896;28;19971;-48
2022/05/06 05:27:29;;;;;;;;;;;;;;;12.16;52.89;102247.47;5021006;28;19967;-49
2022/05/06 05:29:54;;;;;;;;;;;;;;;12.15;53.02;102244.88;5014757;28;20011;-59
2022/05/06 05:32:19;;;;;;;;;;;;;;;12.18;53.12;102245.59;5016892;28;20055;-54
2022/05/06 05:34:46;;;;;;;;;;;;;;;12.22;53.19;102256.91;5019773;28;19920;-51
2022/05/06 05:37:11;;;;;;;;;;;;;;;12.26;53.11;102247.91;5021010;28;19922;-55
2022/05/06 05:39:37;;;;;;;;;;;;;;;12.26;53.30;102249.72;5027820;28;19936;-57
2022/05/06 05:42:05;;;;;;;;;;;;;;;12.29;53.44;102254.88;5025889;28;19920;-53
2022/05/06 05:49:59;;;;;;;;;;;;;;;12.20;53.63;102251.66;5029605;28;19971;-56
2022/05/06 05:52:24;;;;;;;;;;;;;;;12.27;53.78;102254.06;5027737;28;19913;-56
2022/05/06 05:54:49;;;;;;;;;;;;;;;12.31;53.89;102255.66;5022710;28;19920;-52
2022/05/06 05:57:14;;;;;;;;;;;;;;;12.32;53.73;102257.41;5004231;28;20298;-49
2022/05/06 05:59:41;;;;;;;;;;;;;;;12.33;53.91;102257.31;5015720;28;20004;-52
2022/05/06 06:02:07;;;;;;;;;;;;;;;12.37;53.85;102255.41;5020563;28;19927;-56
2022/05/06 06:04:33;;;;;;;;;;;;;;;12.44;54.01;102261.28;5027228;28;19959;-50
2022/05/06 06:06:58;;;;;;;;;;;;;;;12.52;54.04;102258.31;5029698;28;20394;-58
2022/05/06 06:09:24;;;;;;;;;;;;;;;12.58;54.08;102258.94;5029850;28;19924;-49
2022/05/06 06:11:49;;;;;;;;;;;;;;;12.61;54.01;102255.31;5026608;28;19924;-54
2022/05/06 06:14:16;;;;;;;;;;;;;;;12.62;53.82;102254.41;5024491;28;20405;-54
2022/05/06 06:16:41;;;;;;;;;;;;;;;12.65;53.82;102263.03;5026047;28;20055;-57
2022/05/06 06:19:07;;;;;;;;;;;;;;;12.72;53.74;102266.28;5030173;28;20011;-57
2022/05/06 06:21:33;;;;;;;;;;;;;;;12.83;53.72;102259.66;5029539;28;19917;-54
2022/05/06 06:23:58;;;;;;;;;;;;;;;12.92;53.61;102257.50;5030596;28;19917;-57
2022/05/06 06:26:24;;;;;;;;;;;;;;;13.01;53.52;102256.25;5029558;28;20054;-54
2022/05/06 06:28:49;;;;;;;;;;;;;;;13.08;53.56;102265.59;5025166;28;19924;-58
2022/05/06 06:31:14;;;;;;;;;;;;;;;13.16;53.23;102264.41;5028920;28;19920;-56
2022/05/06 06:33:40;;;;;;;;;;;;;;;13.21;53.47;102265.06;5027606;28;19920;-57
2022/05/06 06:36:06;;;;;;;;;;;;;;;13.28;53.09;102263.84;5029586;28;19913;-54
2022/05/06 06:38:31;;;;;;;;;;;;;;;13.34;53.29;102271.53;5029854;28;19913;-54
2022/05/06 06:40:57;;;;;;;;;;;;;;;13.41;53.16;102266.84;5027394;28;20011;-58
2022/05/06 06:43:22;;;;;;;;;;;;;;;13.50;53.07;102273.50;5026611;28;19921;-57
2022/05/06 06:45:47;;;;;;;;;;;;;;;13.56;53.06;102270.56;5023010;28;19927;-56
2022/05/06 06:48:13;;;;;;;;;;;;;;;13.62;53.42;102261.47;5027170;28;20403;-58
2022/05/06 06:50:39;;;;;;;;;;;;;;;13.64;53.11;102263.16;5032519;28;19956;-55
2022/05/06 06:53:05;;;;;;;;;;;;;;;13.61;53.40;102263.28;5030090;28;20612;-58
2022/05/06 06:55:30;;;;;;;;;;;;;;;13.59;53.43;102267.78;5035622;28;19921;-55
2022/05/06 06:57:55;;;;;;;;;;;;;;;13.62;53.36;102264.13;5028603;28;19917;-58
2022/05/06 07:00:20;;;;;;;;;;;;;;;13.67;53.53;102260.38;5027439;28;19944;-49
2022/05/06 07:02:46;;;;;;;;;;;;;;;13.73;53.16;102261.88;5005559;28;19924;-54
2022/05/06 07:05:11;;;;;;;;;;;;;;;13.78;53.18;102259.00;5027618;28;19924;-53
2022/05/06 07:13:05;;;;;;;;;;;;;;;13.86;53.25;102264.78;5022284;28;19951;-52
2022/05/06 07:15:31;;;;;;;;;;;;;;;13.87;53.41;102261.19;5027771;28;19941;-50
2022/05/06 07:17:57;;;;;;;;;;;;;;;13.91;53.65;102267.22;5027521;28;19913;-53
2022/05/06 07:20:22;;;;;;;;;;;;;;;13.95;53.32;102264.34;5025140;28;19919;-54
2022/05/06 07:22:48;;;;;;;;;;;;;;;14.00;53.49;102270.25;5025857;28;20373;-49
2022/05/06 07:25:13;;;;;;;;;;;;;;;14.01;53.63;102269.31;5026293;28;19925;-51
2022/05/06 07:27:38;;;;;;;;;;;;;;;14.02;53.68;102268.41;5030160;28;19920;-49
2022/05/06 07:30:04;;;;;;;;;;;;;;;14.03;53.41;102271.91;5023086;28;20313;-50
2022/05/06 07:32:30;;;;;;;;;;;;;;;14.05;53.57;102269.19;5026080;28;19913;-51
2022/05/06 07:34:56;;;;;;;;;;;;;;;14.11;53.42;102274.19;5028372;28;19917;-53
2022/05/06 07:37:21;;;;;;;;;;;;;;;14.18;53.26;102278.25;5029718;28;19960;-52
2022/05/06 07:39:46;;;;;;;;;;;;;;;14.26;53.34;102273.47;5030329;28;20356;-49
2022/05/06 07:42:12;;;;;;;;;;;;;;;14.35;53.21;102282.75;5024579;28;19940;-54
2022/05/06 07:44:37;;;;;;;;;;;;;;;14.43;53.18;102266.47;5025993;28;19921;-49
2022/05/06 07:47:02;;;;;;;;;;;;;;;14.50;52.96;102265.22;5026081;28;19920;-49
2022/05/06 07:49:28;;;;;;;;;;;;;;;14.54;52.80;102271.22;5027421;28;19917;-52
2022/05/06 07:51:53;;;;;;;;;;;;;;;14.55;52.62;102270.28;5027609;28;19925;-51
2022/05/06 07:54:18;;;;;;;;;;;;;;;14.57;52.90;102282.53;5027239;28;19917;-50
2022/05/06 07:56:44;;;;;;;;;;;;;;;14.60;52.60;102281.50;5025887;28;19917;-49
2022/05/06 07:59:09;;;;;;;;;;;;;;;14.63;52.71;102281.34;5025956;28;19990;-49
2022/05/06 08:04:34;;;;;;;;;;;;;;;14.69;52.87;102281.06;5028115;28;19928;-53
2022/05/06 08:07:00;;;;;;;;;;;;;;;14.74;52.68;102283.50;5027175;28;19920;-50
2022/05/06 08:09:25;;;;;;;;;;;;;;;14.79;52.68;102286.75;5030834;28;19909;-49
2022/05/06 08:11:50;;;;;;;;;;;;;;;14.81;52.58;102292.84;5031649;28;20000;-51
2022/05/06 08:14:16;;;;;;;;;;;;;;;14.84;52.67;102299.75;5032006;28;19909;-51
2022/05/06 08:16:45;;;;;;;;;;;;;;;14.84;52.69;102290.03;5029684;28;19924;-52
2022/05/06 08:19:11;;;;;;;;;;;;;;;14.86;52.61;102287.28;5023072;28;19921;-49
2022/05/06 08:21:36;;;;;;;;;;;;;;;14.92;52.72;102285.19;5030017;28;19995;-49
2022/05/06 08:24:02;;;;;;;;;;;;;;;15.01;52.61;102285.66;5023845;28;19924;-54
2022/05/06 08:26:27;;;;;;;;;;;;;;;15.04;52.80;102285.50;5029953;28;19913;-55
2022/05/06 08:28:53;;;;;;;;;;;;;;;15.07;53.03;102278.25;5025340;28;19920;-56
2022/05/06 08:31:18;;;;;;;;;;;;;;;15.12;52.91;102283.31;5013465;28;19920;-53
2022/05/06 08:33:43;;;;;;;;;;;;;;;15.20;52.78;102289.03;5033878;28;19924;-49
2022/05/06 08:36:09;;;;;;;;;;;;;;;15.28;52.73;102293.09;5031300;28;19975;-50
2022/05/06 08:38:34;;;;;;;;;;;;;;;15.34;52.79;102290.97;5024777;28;19929;-51
2022/05/06 08:41:00;;;;;;;;;;;;;;;15.36;52.45;102291.75;5029610;28;20395;-49
2022/05/06 08:43:26;;;;;;;;;;;;;;;15.37;52.88;102287.28;5026503;28;19916;-54
2022/05/06 08:51:39;;;;;;;;;;;;;;;15.52;52.53;102302.38;4989591;28;19936;-50
2022/05/06 08:54:05;;;;;;;;;;;;;;;15.57;52.32;102288.91;5023790;28;19944;-54
2022/05/06 08:56:31;;;;;;;;;;;;;;;15.61;52.38;102294.88;5029216;28;20292;-53
2022/05/06 08:58:56;;;;;;;;;;;;;;;15.65;52.14;102296.44;5022940;28;19924;-57
2022/05/06 09:01:22;;;;;;;;;;;;;;;15.66;51.99;102287.50;5035011;28;19909;-56
2022/05/06 09:03:48;;;;;;;;;;;;;;;15.68;52.12;102291.81;5028698;28;19917;-54
2022/05/06 09:06:16;;;;;;;;;;;;;;;15.75;52.08;102281.72;5033727;28;19924;-54
2022/05/06 09:08:42;;;;;;;;;;;;;;;15.80;51.85;102292.94;5029778;28;19920;-54
2022/05/06 09:11:08;;;;;;;;;;;;;;;15.81;51.87;102276.03;5029913;28;19958;-54
2022/05/06 09:13:51;;;;;;;;;;;;;;;15.84;51.76;102289.16;5031503;28;19913;-56
2022/05/06 09:19:09;;;;;;;;;;;;;;;15.99;51.35;102287.47;5022064;28;19919;-57
2022/05/06 09:21:35;;;;;;;;;;;;;;;16.03;51.40;102280.19;5031559;28;19940;-50
2022/05/06 09:24:19;;;;;;;;;;;;;;;16.11;51.30;102293.88;5029066;28;21073;-53
2022/05/06 09:26:57;;;;;;;;;;;;;;;16.19;50.56;102295.25;5026408;28;19928;-56
2022/05/06 09:29:28;;;;;;;;;;;;;;;16.22;50.46;102285.31;5026324;28;19920;-51
2022/05/06 09:31:54;;;;;;;;;;;;;;;16.27;50.49;102287.69;5021000;28;20407;-55
2022/05/06 09:34:25;;;;;;;;;;;;;;;16.35;50.42;102284.59;5028259;28;19965;-49
2022/05/06 09:36:51;;;;;;;;;;;;;;;16.43;50.47;102280.56;5018014;28;20257;-52
2022/05/06 09:39:16;;;;;;;;;;;;;;;16.51;50.35;102273.94;5026206;28;20414;-57
2022/05/06 09:41:41;;;;;;;;;;;;;;;16.56;50.24;102277.22;5027013;28;20412;-55
2022/05/06 09:44:10;;;;;;;;;;;;;;;16.58;50.20;102275.28;5027518;28;19921;-58
2022/05/06 09:46:36;;;;;;;;;;;;;;;16.56;50.19;102275.38;5021590;28;19924;-57
2022/05/06 09:49:02;;;;;;;;;;;;;;;16.53;50.10;102277.38;5023808;28;19918;-56
2022/05/06 09:51:28;;;;;;;;;;;;;;;16.50;50.10;102277.56;5030075;28;19924;-57
2022/05/06 09:53:55;;;;;;;;;;;;;;;16.51;50.16;102268.63;5022296;28;20939;-56
2022/05/06 09:56:20;;;;;;;;;;;;;;;16.53;49.98;102266.75;5027327;28;19916;-56
2022/05/06 09:58:46;;;;;;;;;;;;;;;16.52;49.75;102259.72;5025223;28;19913;-57
2022/05/06 10:01:14;;;;;;;;;;;;;;;16.56;49.88;102282.53;5024497;28;19925;-55
2022/05/06 10:03:39;;;;;;;;;;;;;;;16.58;49.54;102275.28;5026977;28;19917;-54
2022/05/06 10:06:08;;;;;;;;;;;;;;;16.59;49.48;102271.69;5026044;28;19923;-55
2022/05/06 10:08:34;;;;;;;;;;;;;;;16.61;49.54;102269.78;5019784;28;19913;-56
2022/05/06 10:11:01;;;;;;;;;;;;;;;16.65;49.47;102260.69;5027297;28;19928;-57
2022/05/06 10:13:28;;;;;;;;;;;;;;;16.72;49.44;102267.34;5008993;28;20016;-57
2022/05/06 10:15:54;;;;;;;;;;;;;;;16.81;48.98;102262.44;5027502;28;20011;-55
2022/05/06 10:18:38;;;;;;;;;;;;;;;16.85;48.95;102261.31;5025274;28;19996;-50
2022/05/06 10:21:04;;;;;;;;;;;;;;;16.90;48.79;102260.09;5028965;28;19917;-50
2022/05/06 10:23:42;;;;;;;;;;;;;;;16.94;48.65;102276.72;5023071;28;19917;-50
2022/05/06 10:26:08;;;;;;;;;;;;;;;16.96;48.43;102256.22;5024157;28;20002;-49
2022/05/06 10:34:08;;;;;;;;;;;;;;;17.10;48.18;102247.41;5026965;28;19975;-52
2022/05/06 10:37:00;;;;;;;;;;;;;;;17.15;48.01;102247.13;5026457;28;19920;-49
2022/05/06 10:39:32;;;;;;;;;;;;;;;17.17;47.64;102251.41;5022308;28;20022;-53
2022/05/06 10:42:16;;;;;;;;;;;;;;;17.15;47.57;102241.81;5025961;28;20040;-49
2022/05/06 10:44:45;;;;;;;;;;;;;;;17.14;47.67;102240.94;5029588;28;19925;-50
2022/05/06 10:47:13;;;;;;;;;;;;;;;17.16;47.39;102235.53;5032888;28;19913;-49
2022/05/06 10:49:46;;;;;;;;;;;;;;;17.18;47.50;102236.28;5030190;28;19920;-56
2022/05/06 10:52:23;;;;;;;;;;;;;;;17.24;47.43;102230.59;5029677;28;19966;-55
2022/05/06 10:54:53;;;;;;;;;;;;;;;17.33;47.33;102243.31;5024221;28;20391;-50
2022/05/06 10:57:28;;;;;;;;;;;;;;;17.41;47.01;102236.66;5028037;28;19920;-52
2022/05/06 10:59:53;;;;;;;;;;;;;;;17.49;46.79;102235.22;5023730;28;20000;-51
2022/05/06 11:02:22;;;;;;;;;;;;;;;17.58;46.44;102238.25;5027647;28;20004;-51
2022/05/06 11:04:50;;;;;;;;;;;;;;;17.68;45.48;102253.53;5021086;28;19928;-50
2022/05/06 11:07:19;;;;;;;;;;;;;;;17.71;45.31;102243.63;5026262;28;19939;-53
2022/05/06 11:09:44;;;;;;;;;;;;;;;17.73;45.08;102234.59;5028988;28;20381;-52
2022/05/06 11:12:10;;;;;;;;;;;;;;;17.76;45.10;102230.91;5007138;28;19971;-55
2022/05/06 11:14:35;;;;;;;;;;;;;;;17.77;44.93;102227.28;5026661;28;19916;-52
2022/05/06 11:17:17;;;;;;;;;;;;;;;17.83;45.04;102221.53;5028665;28;19920;-50
2022/05/06 11:19:42;;;;;;;;;;;;;;;17.90;45.19;102217.53;5026516;28;19994;-51
2022/05/06 11:22:08;;;;;;;;;;;;;;;17.92;44.97;102210.28;5022849;28;20444;-49
2022/05/06 11:24:33;;;;;;;;;;;;;;;17.95;45.07;102214.56;5023013;28;19928;-52
2022/05/06 11:27:14;;;;;;;;;;;;;;;17.98;45.07;102228.56;5026346;28;19912;-55
2022/05/06 11:29:49;;;;;;;;;;;;;;;17.98;45.05;102220.56;5023501;28;20411;-50
2022/05/06 11:32:15;;;;;;;;;;;;;;;17.93;45.01;102225.31;5020342;28;19936;-56
2022/05/06 11:35:03;;;;;;;;;;;;;;;17.90;45.00;102217.53;5024996;28;19914;-56
2022/05/06 11:37:29;;;;;;;;;;;;;;;17.90;45.17;102228.19;5021888;28;20879;-55
2022/05/06 11:42:39;;;;;;;;;;;;;;;17.85;45.17;102219.63;5020687;28;19967;-56
2022/05/06 11:47:49;;;;;;;;;;;;;;;17.88;45.36;102221.25;5025929;28;19970;-54
2022/05/06 11:50:15;;;;;;;;;;;;;;;17.93;45.24;102214.66;5029508;28;20016;-58
2022/05/06 11:52:41;;;;;;;;;;;;;;;17.99;45.35;102213.44;5021663;28;19917;-55
2022/05/06 11:55:07;;;;;;;;;;;;;;;18.02;45.14;102207.06;5022385;28;20331;-57
2022/05/06 11:57:37;;;;;;;;;;;;;;;18.03;44.60;102203.44;5005775;28;20007;-58
2022/05/06 12:00:03;;;;;;;;;;;;;;;18.04;44.91;102221.13;5017292;28;19921;-57
2022/05/06 12:02:29;;;;;;;;;;;;;;;18.03;44.85;102214.09;5025472;28;19956;-56
2022/05/06 12:04:54;;;;;;;;;;;;;;;18.01;44.38;102210.69;5019074;28;20014;-54
2022/05/06 12:07:20;;;;;;;;;;;;;;;17.93;44.10;102205.81;5022669;28;20062;-54
2022/05/06 12:09:45;;;;;;;;;;;;;;;17.91;44.38;102208.59;5021539;28;19967;-53
2022/05/06 12:12:11;;;;;;;;;;;;;;;17.93;44.38;102206.66;5021820;28;19945;-55
2022/05/06 12:14:37;;;;;;;;;;;;;;;17.94;44.32;102207.53;5025444;28;19917;-53
2022/05/06 12:17:03;;;;;;;;;;;;;;;17.96;44.29;102206.47;5023242;28;19970;-53
2022/05/06 12:19:38;;;;;;;;;;;;;;;17.97;44.47;102194.88;5025440;28;19935;-53
2022/05/06 12:22:10;;;;;;;;;;;;;;;18.01;44.39;102202.69;5022561;28;20396;-56
2022/05/06 12:24:43;;;;;;;;;;;;;;;18.04;44.12;102202.50;5024323;28;19917;-58
2022/05/06 12:27:09;;;;;;;;;;;;;;;18.04;43.99;102197.16;5026291;28;20139;-57
2022/05/06 12:29:38;;;;;;;;;;;;;;;18.04;44.22;102208.66;5028627;28;20420;-57
2022/05/06 12:32:03;;;;;;;;;;;;;;;18.07;44.08;102210.28;5024057;28;19929;-58
2022/05/06 12:34:29;;;;;;;;;;;;;;;18.09;43.81;102203.88;5018935;28;19963;-58
2022/05/06 12:37:11;;;;;;;;;;;;;;;18.10;43.83;102196.72;5019283;28;20289;-56
2022/05/06 12:39:48;;;;;;;;;;;;;;;18.12;43.54;102190.38;5025311;28;20319;-57
2022/05/06 12:42:13;;;;;;;;;;;;;;;18.14;43.45;102192.91;5002021;28;19921;-58
2022/05/06 12:44:38;;;;;;;;;;;;;;;18.12;43.24;102184.16;5027026;28;19925;-58
2022/05/06 12:47:13;;;;;;;;;;;;;;;18.17;43.62;102186.53;5025428;28;19917;-56
2022/05/06 12:49:42;;;;;;;;;;;;;;;18.25;43.65;102192.19;5021765;28;19920;-57
2022/05/06 12:52:11;;;;;;;;;;;;;;;18.33;43.49;102191.69;5020208;28;19921;-50
2022/05/06 12:54:37;;;;;;;;;;;;;;;18.41;43.22;102184.00;5027497;28;20397;-53
2022/05/06 12:57:04;;;;;;;;;;;;;;;18.46;43.18;102181.03;5033166;28;19921;-55
2022/05/06 12:59:29;;;;;;;;;;;;;;;18.49;42.89;102186.16;5028391;28;20004;-52
2022/05/06 13:01:55;;;;;;;;;;;;;;;18.49;42.94;102181.69;5026069;28;20325;-55
2022/05/06 13:04:20;;;;;;;;;;;;;;;18.54;43.18;102184.03;5022507;28;22090;-50
2022/05/06 13:06:46;;;;;;;;;;;;;;;18.56;42.87;102172.28;5029087;28;19913;-53
2022/05/06 13:09:11;;;;;;;;;;;;;;;18.60;42.82;102172.97;5023456;28;20324;-53
2022/05/06 13:11:37;;;;;;;;;;;;;;;18.63;42.81;102170.06;5031917;28;19940;-54
2022/05/06 13:14:02;;;;;;;;;;;;;;;18.69;43.11;102171.44;5028780;28;19913;-53
2022/05/06 13:16:28;;;;;;;;;;;;;;;18.77;42.79;102174.44;5026875;28;20399;-50
2022/05/06 13:18:54;;;;;;;;;;;;;;;18.84;42.72;102167.69;5029424;28;19925;-51